sensor_id;sensor_type;location;lat;lon;timestamp;P1;durP1;ratioP1;P2;durP2;ratioP2
4885;SDS011;2457;51.788;6.136;2023-10-09T00:00:11;21.40;;;8.17;;
4885;SDS011;2457;51.788;6.136;2023-10-09T00:02:57;22.60;;;9.10;;
4885;SDS011;2457;51.788;6.136;2023-10-09T00:05:27;15.13;;;7.80;;
4885;SDS011;2457;51.788;6.136;2023-10-09T00:07:56;16.20;;;8.20;;
4885;SDS011;2457;51.788;6.136;2023-10-09T00:10:24;14.90;;;7.20;;
4885;SDS011;2457;51.788;6.136;2023-10-09T00:12:53;19.97;;;8.53;;
4885;SDS011;2457;51.788;6.136;2023-10-09T00:15:20;21.33;;;7.70;;
4885;SDS011;2457;51.788;6.136;2023-10-09T00:17:48;21.70;;;8.63;;
4885;SDS011;2457;51.788;6.136;2023-10-09T00:20:17;17.30;;;9.00;;
4885;SDS011;2457;51.788;6.136;2023-10-09T00:22:46;18.03;;;9.23;;
4885;SDS011;2457;51.788;6.136;2023-10-09T00:25:13;17.20;;;7.40;;
4885;SDS011;2457;51.788;6.136;2023-10-09T00:27:51;18.17;;;7.90;;
4885;SDS011;2457;51.788;6.136;2023-10-09T00:30:19;21.43;;;7.83;;
4885;SDS011;2457;51.788;6.136;2023-10-09T00:32:48;19.20;;;8.80;;
4885;SDS011;2457;51.788;6.136;2023-10-09T00:35:26;20.53;;;8.67;;
4885;SDS011;2457;51.788;6.136;2023-10-09T00:38:07;18.40;;;9.80;;
4885;SDS011;2457;51.788;6.136;2023-10-09T00:40:49;21.40;;;11.33;;
4885;SDS011;2457;51.788;6.136;2023-10-09T00:43:38;18.13;;;9.00;;
4885;SDS011;2457;51.788;6.136;2023-10-09T00:46:07;22.57;;;10.00;;
4885;SDS011;2457;51.788;6.136;2023-10-09T00:48:38;19.20;;;9.20;;
4885;SDS011;2457;51.788;6.136;2023-10-09T00:51:07;23.17;;;9.23;;
4885;SDS011;2457;51.788;6.136;2023-10-09T00:53:36;20.03;;;8.60;;
4885;SDS011;2457;51.788;6.136;2023-10-09T00:56:04;25.43;;;10.23;;
4885;SDS011;2457;51.788;6.136;2023-10-09T00:58:49;25.97;;;10.30;;
4885;SDS011;2457;51.788;6.136;2023-10-09T01:01:19;18.20;;;9.47;;
4885;SDS011;2457;51.788;6.136;2023-10-09T01:03:48;19.53;;;9.67;;
4885;SDS011;2457;51.788;6.136;2023-10-09T01:06:17;24.13;;;10.47;;
4885;SDS011;2457;51.788;6.136;2023-10-09T01:08:46;24.07;;;9.43;;
4885;SDS011;2457;51.788;6.136;2023-10-09T01:11:24;26.63;;;10.40;;
4885;SDS011;2457;51.788;6.136;2023-10-09T01:13:53;22.27;;;10.07;;
4885;SDS011;2457;51.788;6.136;2023-10-09T01:16:23;21.20;;;10.50;;
4885;SDS011;2457;51.788;6.136;2023-10-09T01:18:51;18.30;;;9.57;;
4885;SDS011;2457;51.788;6.136;2023-10-09T01:21:19;25.53;;;9.20;;
4885;SDS011;2457;51.788;6.136;2023-10-09T01:23:55;21.80;;;10.50;;
4885;SDS011;2457;51.788;6.136;2023-10-09T01:29:03;22.70;;;8.70;;
4885;SDS011;2457;51.788;6.136;2023-10-09T01:31:30;18.47;;;9.27;;
4885;SDS011;2457;51.788;6.136;2023-10-09T01:33:59;17.30;;;8.87;;
4885;SDS011;2457;51.788;6.136;2023-10-09T01:36:26;18.63;;;7.57;;
4885;SDS011;2457;51.788;6.136;2023-10-09T01:39:05;20.13;;;8.00;;
4885;SDS011;2457;51.788;6.136;2023-10-09T01:41:30;19.20;;;8.47;;
4885;SDS011;2457;51.788;6.136;2023-10-09T01:43:59;18.63;;;8.20;;
4885;SDS011;2457;51.788;6.136;2023-10-09T01:46:28;18.43;;;8.30;;
4885;SDS011;2457;51.788;6.136;2023-10-09T01:48:57;18.20;;;8.13;;
4885;SDS011;2457;51.788;6.136;2023-10-09T01:54:13;15.60;;;7.63;;
4885;SDS011;2457;51.788;6.136;2023-10-09T01:56:42;15.93;;;7.67;;
4885;SDS011;2457;51.788;6.136;2023-10-09T01:59:11;16.27;;;7.93;;
4885;SDS011;2457;51.788;6.136;2023-10-09T02:01:39;15.90;;;7.37;;
4885;SDS011;2457;51.788;6.136;2023-10-09T02:04:08;22.53;;;7.97;;
4885;SDS011;2457;51.788;6.136;2023-10-09T02:06:37;17.43;;;7.60;;
4885;SDS011;2457;51.788;6.136;2023-10-09T02:09:04;14.70;;;7.90;;
4885;SDS011;2457;51.788;6.136;2023-10-09T02:11:32;17.23;;;7.63;;
4885;SDS011;2457;51.788;6.136;2023-10-09T02:14:03;15.77;;;6.53;;
4885;SDS011;2457;51.788;6.136;2023-10-09T02:16:32;12.77;;;7.03;;
4885;SDS011;2457;51.788;6.136;2023-10-09T02:19:01;19.63;;;7.60;;
4885;SDS011;2457;51.788;6.136;2023-10-09T02:21:30;15.10;;;6.80;;
4885;SDS011;2457;51.788;6.136;2023-10-09T02:24:02;16.37;;;8.10;;
4885;SDS011;2457;51.788;6.136;2023-10-09T02:26:36;12.00;;;6.10;;
4885;SDS011;2457;51.788;6.136;2023-10-09T02:29:07;14.00;;;6.93;;
4885;SDS011;2457;51.788;6.136;2023-10-09T02:31:42;16.57;;;7.10;;
4885;SDS011;2457;51.788;6.136;2023-10-09T02:34:11;17.00;;;7.43;;
4885;SDS011;2457;51.788;6.136;2023-10-09T02:36:39;12.27;;;6.27;;
4885;SDS011;2457;51.788;6.136;2023-10-09T02:39:11;16.70;;;7.37;;
4885;SDS011;2457;51.788;6.136;2023-10-09T02:41:50;13.10;;;6.50;;
4885;SDS011;2457;51.788;6.136;2023-10-09T02:44:19;15.73;;;7.50;;
4885;SDS011;2457;51.788;6.136;2023-10-09T02:46:48;23.73;;;7.00;;
4885;SDS011;2457;51.788;6.136;2023-10-09T02:49:17;16.60;;;7.80;;
4885;SDS011;2457;51.788;6.136;2023-10-09T02:51:44;16.87;;;7.00;;
4885;SDS011;2457;51.788;6.136;2023-10-09T02:54:13;15.90;;;7.43;;
4885;SDS011;2457;51.788;6.136;2023-10-09T02:56:52;14.63;;;7.27;;
4885;SDS011;2457;51.788;6.136;2023-10-09T02:59:33;16.73;;;7.40;;
4885;SDS011;2457;51.788;6.136;2023-10-09T03:02:02;17.90;;;6.20;;
4885;SDS011;2457;51.788;6.136;2023-10-09T03:04:30;13.93;;;6.80;;
4885;SDS011;2457;51.788;6.136;2023-10-09T03:06:57;15.70;;;6.97;;
4885;SDS011;2457;51.788;6.136;2023-10-09T03:09:25;16.80;;;6.13;;
4885;SDS011;2457;51.788;6.136;2023-10-09T03:12:02;12.37;;;5.50;;
4885;SDS011;2457;51.788;6.136;2023-10-09T03:14:36;14.00;;;6.70;;
4885;SDS011;2457;51.788;6.136;2023-10-09T03:17:05;15.60;;;6.87;;
4885;SDS011;2457;51.788;6.136;2023-10-09T03:19:34;15.03;;;6.40;;
4885;SDS011;2457;51.788;6.136;2023-10-09T03:22:05;14.10;;;6.07;;
4885;SDS011;2457;51.788;6.136;2023-10-09T03:24:34;15.80;;;6.30;;
4885;SDS011;2457;51.788;6.136;2023-10-09T03:27:02;18.07;;;6.80;;
4885;SDS011;2457;51.788;6.136;2023-10-09T03:29:29;18.80;;;6.57;;
4885;SDS011;2457;51.788;6.136;2023-10-09T03:31:56;17.40;;;6.20;;
4885;SDS011;2457;51.788;6.136;2023-10-09T03:34:24;19.57;;;6.53;;
4885;SDS011;2457;51.788;6.136;2023-10-09T03:36:51;14.43;;;6.80;;
4885;SDS011;2457;51.788;6.136;2023-10-09T03:39:20;13.87;;;5.90;;
4885;SDS011;2457;51.788;6.136;2023-10-09T03:42:01;14.67;;;6.57;;
4885;SDS011;2457;51.788;6.136;2023-10-09T03:44:34;17.33;;;6.90;;
4885;SDS011;2457;51.788;6.136;2023-10-09T03:47:03;13.90;;;6.33;;
4885;SDS011;2457;51.788;6.136;2023-10-09T03:49:31;15.50;;;7.07;;
4885;SDS011;2457;51.788;6.136;2023-10-09T03:51:58;14.57;;;6.40;;
4885;SDS011;2457;51.788;6.136;2023-10-09T03:54:25;16.80;;;6.37;;
4885;SDS011;2457;51.788;6.136;2023-10-09T03:56:54;15.70;;;7.20;;
4885;SDS011;2457;51.788;6.136;2023-10-09T03:59:23;14.43;;;6.80;;
4885;SDS011;2457;51.788;6.136;2023-10-09T04:01:52;17.40;;;7.07;;
4885;SDS011;2457;51.788;6.136;2023-10-09T04:04:20;13.50;;;5.83;;
4885;SDS011;2457;51.788;6.136;2023-10-09T04:06:49;12.47;;;6.87;;
4885;SDS011;2457;51.788;6.136;2023-10-09T04:09:17;11.20;;;6.50;;
4885;SDS011;2457;51.788;6.136;2023-10-09T04:11:50;19.33;;;7.83;;
4885;SDS011;2457;51.788;6.136;2023-10-09T04:14:25;17.70;;;5.73;;
4885;SDS011;2457;51.788;6.136;2023-10-09T04:17:00;11.77;;;6.67;;
4885;SDS011;2457;51.788;6.136;2023-10-09T04:19:35;13.63;;;6.67;;
4885;SDS011;2457;51.788;6.136;2023-10-09T04:22:07;13.90;;;6.17;;
4885;SDS011;2457;51.788;6.136;2023-10-09T04:24:36;20.30;;;7.00;;
4885;SDS011;2457;51.788;6.136;2023-10-09T04:27:10;14.13;;;5.53;;
4885;SDS011;2457;51.788;6.136;2023-10-09T04:29:39;19.73;;;7.50;;
4885;SDS011;2457;51.788;6.136;2023-10-09T04:32:11;13.90;;;6.50;;
4885;SDS011;2457;51.788;6.136;2023-10-09T04:34:39;18.83;;;7.90;;
4885;SDS011;2457;51.788;6.136;2023-10-09T04:37:08;11.83;;;5.87;;
4885;SDS011;2457;51.788;6.136;2023-10-09T04:39:43;15.77;;;9.97;;
4885;SDS011;2457;51.788;6.136;2023-10-09T04:42:18;16.03;;;7.43;;
4885;SDS011;2457;51.788;6.136;2023-10-09T04:44:53;14.27;;;6.60;;
4885;SDS011;2457;51.788;6.136;2023-10-09T04:47:28;13.57;;;7.90;;
4885;SDS011;2457;51.788;6.136;2023-10-09T04:50:07;22.73;;;7.80;;
4885;SDS011;2457;51.788;6.136;2023-10-09T04:52:45;14.20;;;7.70;;
4885;SDS011;2457;51.788;6.136;2023-10-09T04:55:18;13.63;;;6.40;;
4885;SDS011;2457;51.788;6.136;2023-10-09T04:57:48;16.27;;;7.40;;
4885;SDS011;2457;51.788;6.136;2023-10-09T05:00:28;16.70;;;9.70;;
4885;SDS011;2457;51.788;6.136;2023-10-09T05:02:58;18.40;;;9.33;;
4885;SDS011;2457;51.788;6.136;2023-10-09T05:05:28;18.83;;;7.30;;
4885;SDS011;2457;51.788;6.136;2023-10-09T05:08:07;16.77;;;7.20;;
4885;SDS011;2457;51.788;6.136;2023-10-09T05:10:54;19.00;;;8.23;;
4885;SDS011;2457;51.788;6.136;2023-10-09T05:18:48;20.13;;;10.17;;
4885;SDS011;2457;51.788;6.136;2023-10-09T05:21:36;17.62;;;8.03;;
4885;SDS011;2457;51.788;6.136;2023-10-09T05:24:06;15.33;;;7.23;;
4885;SDS011;2457;51.788;6.136;2023-10-09T05:26:44;15.17;;;7.33;;
4885;SDS011;2457;51.788;6.136;2023-10-09T05:29:25;15.50;;;7.30;;
4885;SDS011;2457;51.788;6.136;2023-10-09T05:32:01;15.90;;;8.37;;
4885;SDS011;2457;51.788;6.136;2023-10-09T05:34:43;14.30;;;6.57;;
4885;SDS011;2457;51.788;6.136;2023-10-09T05:37:31;26.93;;;7.00;;
4885;SDS011;2457;51.788;6.136;2023-10-09T05:40:03;13.90;;;6.73;;
4885;SDS011;2457;51.788;6.136;2023-10-09T05:42:47;17.17;;;7.60;;
4885;SDS011;2457;51.788;6.136;2023-10-09T05:45:17;14.20;;;6.70;;
4885;SDS011;2457;51.788;6.136;2023-10-09T05:47:52;12.23;;;6.53;;
4885;SDS011;2457;51.788;6.136;2023-10-09T05:50:25;16.93;;;12.90;;
4885;SDS011;2457;51.788;6.136;2023-10-09T05:52:55;16.47;;;7.60;;
4885;SDS011;2457;51.788;6.136;2023-10-09T05:55:25;14.50;;;6.93;;
4885;SDS011;2457;51.788;6.136;2023-10-09T05:58:11;18.30;;;7.50;;
4885;SDS011;2457;51.788;6.136;2023-10-09T06:00:56;16.40;;;6.47;;
4885;SDS011;2457;51.788;6.136;2023-10-09T06:03:25;17.80;;;8.10;;
4885;SDS011;2457;51.788;6.136;2023-10-09T06:05:55;18.60;;;7.60;;
4885;SDS011;2457;51.788;6.136;2023-10-09T06:08:25;19.33;;;7.57;;
4885;SDS011;2457;51.788;6.136;2023-10-09T06:11:00;16.23;;;6.80;;
4885;SDS011;2457;51.788;6.136;2023-10-09T06:13:35;20.53;;;6.83;;
4885;SDS011;2457;51.788;6.136;2023-10-09T06:16:08;19.03;;;8.00;;
4885;SDS011;2457;51.788;6.136;2023-10-09T06:18:49;13.47;;;7.40;;
4885;SDS011;2457;51.788;6.136;2023-10-09T06:21:24;16.30;;;8.07;;
4885;SDS011;2457;51.788;6.136;2023-10-09T06:24:09;21.70;;;11.57;;
4885;SDS011;2457;51.788;6.136;2023-10-09T06:26:48;15.67;;;7.03;;
4885;SDS011;2457;51.788;6.136;2023-10-09T06:29:26;19.70;;;8.57;;
4885;SDS011;2457;51.788;6.136;2023-10-09T06:32:07;19.50;;;8.80;;
4885;SDS011;2457;51.788;6.136;2023-10-09T06:34:59;18.80;;;8.20;;
4885;SDS011;2457;51.788;6.136;2023-10-09T06:37:25;17.30;;;7.83;;
4885;SDS011;2457;51.788;6.136;2023-10-09T06:39:54;19.03;;;8.57;;
4885;SDS011;2457;51.788;6.136;2023-10-09T06:42:24;15.50;;;8.17;;
4885;SDS011;2457;51.788;6.136;2023-10-09T06:45:02;15.20;;;7.27;;
4885;SDS011;2457;51.788;6.136;2023-10-09T06:47:34;16.60;;;8.30;;
4885;SDS011;2457;51.788;6.136;2023-10-09T06:50:20;13.63;;;6.27;;
4885;SDS011;2457;51.788;6.136;2023-10-09T06:52:49;13.80;;;6.70;;
4885;SDS011;2457;51.788;6.136;2023-10-09T06:55:27;12.60;;;6.30;;
4885;SDS011;2457;51.788;6.136;2023-10-09T06:58:02;17.90;;;7.47;;
4885;SDS011;2457;51.788;6.136;2023-10-09T07:00:31;15.53;;;7.07;;
4885;SDS011;2457;51.788;6.136;2023-10-09T07:03:17;15.30;;;6.53;;
4885;SDS011;2457;51.788;6.136;2023-10-09T07:05:46;15.43;;;8.47;;
4885;SDS011;2457;51.788;6.136;2023-10-09T07:08:30;13.07;;;6.70;;
4885;SDS011;2457;51.788;6.136;2023-10-09T07:11:02;19.37;;;8.20;;
4885;SDS011;2457;51.788;6.136;2023-10-09T07:13:33;18.00;;;10.80;;
4885;SDS011;2457;51.788;6.136;2023-10-09T07:16:02;17.13;;;7.67;;
4885;SDS011;2457;51.788;6.136;2023-10-09T07:18:47;16.03;;;8.80;;
4885;SDS011;2457;51.788;6.136;2023-10-09T07:21:19;16.30;;;7.50;;
4885;SDS011;2457;51.788;6.136;2023-10-09T07:23:48;14.43;;;6.50;;
4885;SDS011;2457;51.788;6.136;2023-10-09T07:26:15;19.27;;;11.20;;
4885;SDS011;2457;51.788;6.136;2023-10-09T07:28:47;19.70;;;7.27;;
4885;SDS011;2457;51.788;6.136;2023-10-09T07:31:18;19.13;;;8.10;;
4885;SDS011;2457;51.788;6.136;2023-10-09T07:33:53;14.87;;;7.30;;
4885;SDS011;2457;51.788;6.136;2023-10-09T07:36:23;15.37;;;7.23;;
4885;SDS011;2457;51.788;6.136;2023-10-09T07:38:58;14.80;;;7.67;;
4885;SDS011;2457;51.788;6.136;2023-10-09T07:41:29;12.93;;;5.90;;
4885;SDS011;2457;51.788;6.136;2023-10-09T07:44:02;12.97;;;6.50;;
4885;SDS011;2457;51.788;6.136;2023-10-09T07:46:31;13.40;;;7.00;;
4885;SDS011;2457;51.788;6.136;2023-10-09T07:48:59;17.53;;;6.70;;
4885;SDS011;2457;51.788;6.136;2023-10-09T07:51:29;13.03;;;7.20;;
4885;SDS011;2457;51.788;6.136;2023-10-09T07:53:59;11.87;;;6.80;;
4885;SDS011;2457;51.788;6.136;2023-10-09T07:56:36;11.93;;;7.40;;
4885;SDS011;2457;51.788;6.136;2023-10-09T07:59:08;18.80;;;7.53;;
4885;SDS011;2457;51.788;6.136;2023-10-09T08:01:42;13.30;;;6.97;;
4885;SDS011;2457;51.788;6.136;2023-10-09T08:04:19;15.47;;;6.30;;
4885;SDS011;2457;51.788;6.136;2023-10-09T08:06:48;13.57;;;5.10;;
4885;SDS011;2457;51.788;6.136;2023-10-09T08:09:15;11.60;;;5.83;;
4885;SDS011;2457;51.788;6.136;2023-10-09T08:11:44;14.60;;;5.23;;
4885;SDS011;2457;51.788;6.136;2023-10-09T08:14:14;13.23;;;6.67;;
4885;SDS011;2457;51.788;6.136;2023-10-09T08:17:02;12.97;;;6.90;;
4885;SDS011;2457;51.788;6.136;2023-10-09T08:19:40;14.97;;;7.30;;
4885;SDS011;2457;51.788;6.136;2023-10-09T08:22:27;18.57;;;6.80;;
4885;SDS011;2457;51.788;6.136;2023-10-09T08:24:57;15.43;;;8.07;;
4885;SDS011;2457;51.788;6.136;2023-10-09T08:27:24;16.10;;;8.90;;
4885;SDS011;2457;51.788;6.136;2023-10-09T08:30:00;18.07;;;7.70;;
4885;SDS011;2457;51.788;6.136;2023-10-09T08:32:47;15.57;;;8.30;;
4885;SDS011;2457;51.788;6.136;2023-10-09T08:35:30;19.70;;;7.70;;
4885;SDS011;2457;51.788;6.136;2023-10-09T08:37:59;16.00;;;8.70;;
4885;SDS011;2457;51.788;6.136;2023-10-09T08:40:32;17.07;;;8.00;;
4885;SDS011;2457;51.788;6.136;2023-10-09T08:43:07;19.70;;;7.77;;
4885;SDS011;2457;51.788;6.136;2023-10-09T08:45:28;18.77;;;8.80;;
4885;SDS011;2457;51.788;6.136;2023-10-09T08:47:55;21.03;;;8.93;;
4885;SDS011;2457;51.788;6.136;2023-10-09T08:50:23;18.63;;;8.00;;
4885;SDS011;2457;51.788;6.136;2023-10-09T08:52:52;19.50;;;8.20;;
4885;SDS011;2457;51.788;6.136;2023-10-09T08:55:21;16.20;;;8.00;;
4885;SDS011;2457;51.788;6.136;2023-10-09T08:57:49;19.80;;;8.10;;
4885;SDS011;2457;51.788;6.136;2023-10-09T09:00:18;19.83;;;7.70;;
4885;SDS011;2457;51.788;6.136;2023-10-09T09:02:50;14.90;;;7.20;;
4885;SDS011;2457;51.788;6.136;2023-10-09T09:05:19;24.33;;;11.00;;
4885;SDS011;2457;51.788;6.136;2023-10-09T09:07:47;16.10;;;8.80;;
4885;SDS011;2457;51.788;6.136;2023-10-09T09:10:15;20.30;;;8.77;;
4885;SDS011;2457;51.788;6.136;2023-10-09T09:12:47;16.40;;;8.37;;
4885;SDS011;2457;51.788;6.136;2023-10-09T09:15:16;19.00;;;8.17;;
4885;SDS011;2457;51.788;6.136;2023-10-09T09:17:47;19.83;;;9.37;;
4885;SDS011;2457;51.788;6.136;2023-10-09T09:20:24;19.13;;;9.47;;
4885;SDS011;2457;51.788;6.136;2023-10-09T09:23:09;20.97;;;8.50;;
4885;SDS011;2457;51.788;6.136;2023-10-09T09:25:47;18.90;;;8.77;;
4885;SDS011;2457;51.788;6.136;2023-10-09T09:28:16;25.40;;;9.57;;
4885;SDS011;2457;51.788;6.136;2023-10-09T09:30:47;17.40;;;9.23;;
4885;SDS011;2457;51.788;6.136;2023-10-09T09:33:18;19.23;;;9.07;;
4885;SDS011;2457;51.788;6.136;2023-10-09T09:36:04;14.20;;;7.00;;
4885;SDS011;2457;51.788;6.136;2023-10-09T09:38:33;18.90;;;8.40;;
4885;SDS011;2457;51.788;6.136;2023-10-09T09:41:17;17.13;;;9.20;;
4885;SDS011;2457;51.788;6.136;2023-10-09T09:43:55;19.60;;;9.40;;
4885;SDS011;2457;51.788;6.136;2023-10-09T09:46:21;17.80;;;8.20;;
4885;SDS011;2457;51.788;6.136;2023-10-09T09:48:51;20.43;;;10.67;;
4885;SDS011;2457;51.788;6.136;2023-10-09T09:51:20;19.13;;;8.67;;
4885;SDS011;2457;51.788;6.136;2023-10-09T09:53:49;15.53;;;8.03;;
4885;SDS011;2457;51.788;6.136;2023-10-09T09:56:20;22.60;;;6.97;;
4885;SDS011;2457;51.788;6.136;2023-10-09T09:58:49;16.70;;;8.80;;
4885;SDS011;2457;51.788;6.136;2023-10-09T10:01:18;21.70;;;9.67;;
4885;SDS011;2457;51.788;6.136;2023-10-09T10:06:40;15.23;;;7.97;;
4885;SDS011;2457;51.788;6.136;2023-10-09T10:09:10;18.63;;;8.37;;
4885;SDS011;2457;51.788;6.136;2023-10-09T10:11:46;18.03;;;8.70;;
4885;SDS011;2457;51.788;6.136;2023-10-09T10:14:18;16.53;;;7.20;;
4885;SDS011;2457;51.788;6.136;2023-10-09T10:22:24;15.03;;;7.00;;
4885;SDS011;2457;51.788;6.136;2023-10-09T10:24:56;18.87;;;8.00;;
4885;SDS011;2457;51.788;6.136;2023-10-09T10:27:28;20.73;;;8.00;;
4885;SDS011;2457;51.788;6.136;2023-10-09T10:32:53;21.27;;;8.87;;
4885;SDS011;2457;51.788;6.136;2023-10-09T10:35:20;12.63;;;6.83;;
4885;SDS011;2457;51.788;6.136;2023-10-09T10:37:50;24.23;;;7.70;;
4885;SDS011;2457;51.788;6.136;2023-10-09T10:40:23;18.73;;;8.27;;
4885;SDS011;2457;51.788;6.136;2023-10-09T10:43:16;15.80;;;7.73;;
4885;SDS011;2457;51.788;6.136;2023-10-09T10:46:05;24.83;;;8.10;;
4885;SDS011;2457;51.788;6.136;2023-10-09T10:48:43;17.70;;;8.27;;
4885;SDS011;2457;51.788;6.136;2023-10-09T10:51:15;17.40;;;8.20;;
4885;SDS011;2457;51.788;6.136;2023-10-09T10:53:51;16.60;;;7.00;;
4885;SDS011;2457;51.788;6.136;2023-10-09T10:56:20;17.27;;;8.23;;
4885;SDS011;2457;51.788;6.136;2023-10-09T10:58:52;17.23;;;7.50;;
4885;SDS011;2457;51.788;6.136;2023-10-09T11:01:37;20.50;;;8.43;;
4885;SDS011;2457;51.788;6.136;2023-10-09T11:04:21;15.80;;;7.80;;
4885;SDS011;2457;51.788;6.136;2023-10-09T11:06:54;14.13;;;7.57;;
4885;SDS011;2457;51.788;6.136;2023-10-09T11:09:26;18.97;;;10.30;;
4885;SDS011;2457;51.788;6.136;2023-10-09T11:11:55;13.67;;;6.67;;
4885;SDS011;2457;51.788;6.136;2023-10-09T11:14:24;26.83;;;7.17;;
4885;SDS011;2457;51.788;6.136;2023-10-09T11:16:51;22.00;;;7.97;;
4885;SDS011;2457;51.788;6.136;2023-10-09T11:19:20;19.03;;;6.90;;
4885;SDS011;2457;51.788;6.136;2023-10-09T11:21:56;21.63;;;7.00;;
4885;SDS011;2457;51.788;6.136;2023-10-09T11:24:34;18.00;;;7.37;;
4885;SDS011;2457;51.788;6.136;2023-10-09T11:27:02;12.97;;;6.10;;
4885;SDS011;2457;51.788;6.136;2023-10-09T11:29:32;14.43;;;6.47;;
4885;SDS011;2457;51.788;6.136;2023-10-09T11:32:19;16.10;;;9.10;;
4885;SDS011;2457;51.788;6.136;2023-10-09T11:35:09;22.07;;;8.17;;
4885;SDS011;2457;51.788;6.136;2023-10-09T11:37:21;13.70;;;5.63;;
4885;SDS011;2457;51.788;6.136;2023-10-09T11:39:57;13.03;;;6.67;;
4885;SDS011;2457;51.788;6.136;2023-10-09T11:42:26;14.03;;;6.80;;
4885;SDS011;2457;51.788;6.136;2023-10-09T11:45:08;12.60;;;5.43;;
4885;SDS011;2457;51.788;6.136;2023-10-09T11:47:49;15.87;;;6.60;;
4885;SDS011;2457;51.788;6.136;2023-10-09T11:50:42;12.80;;;5.80;;
4885;SDS011;2457;51.788;6.136;2023-10-09T11:53:10;13.30;;;6.67;;
4885;SDS011;2457;51.788;6.136;2023-10-09T11:55:51;14.30;;;6.60;;
4885;SDS011;2457;51.788;6.136;2023-10-09T11:58:19;13.83;;;5.20;;
4885;SDS011;2457;51.788;6.136;2023-10-09T12:00:54;17.40;;;6.63;;
4885;SDS011;2457;51.788;6.136;2023-10-09T12:03:23;15.87;;;5.20;;
4885;SDS011;2457;51.788;6.136;2023-10-09T12:05:52;14.10;;;6.10;;
4885;SDS011;2457;51.788;6.136;2023-10-09T12:08:19;12.70;;;5.10;;
4885;SDS011;2457;51.788;6.136;2023-10-09T12:10:48;15.47;;;5.13;;
4885;SDS011;2457;51.788;6.136;2023-10-09T12:13:15;13.10;;;5.33;;
4885;SDS011;2457;51.788;6.136;2023-10-09T12:15:43;14.00;;;6.30;;
4885;SDS011;2457;51.788;6.136;2023-10-09T12:18:12;14.30;;;5.97;;
4885;SDS011;2457;51.788;6.136;2023-10-09T12:20:42;11.93;;;5.10;;
4885;SDS011;2457;51.788;6.136;2023-10-09T12:23:11;13.50;;;5.30;;
4885;SDS011;2457;51.788;6.136;2023-10-09T12:25:43;11.53;;;5.00;;
4885;SDS011;2457;51.788;6.136;2023-10-09T12:28:13;11.63;;;5.23;;
4885;SDS011;2457;51.788;6.136;2023-10-09T12:30:41;13.50;;;5.13;;
4885;SDS011;2457;51.788;6.136;2023-10-09T12:33:08;14.83;;;5.90;;
4885;SDS011;2457;51.788;6.136;2023-10-09T12:35:38;13.10;;;4.60;;
4885;SDS011;2457;51.788;6.136;2023-10-09T12:38:06;14.43;;;5.20;;
4885;SDS011;2457;51.788;6.136;2023-10-09T12:40:36;11.23;;;5.60;;
4885;SDS011;2457;51.788;6.136;2023-10-09T12:43:06;22.13;;;6.23;;
4885;SDS011;2457;51.788;6.136;2023-10-09T12:45:34;12.40;;;5.33;;
4885;SDS011;2457;51.788;6.136;2023-10-09T12:48:05;13.40;;;5.97;;
4885;SDS011;2457;51.788;6.136;2023-10-09T12:50:34;13.50;;;5.20;;
4885;SDS011;2457;51.788;6.136;2023-10-09T12:53:03;12.20;;;4.87;;
4885;SDS011;2457;51.788;6.136;2023-10-09T12:55:38;12.93;;;4.93;;
4885;SDS011;2457;51.788;6.136;2023-10-09T12:58:09;16.30;;;6.70;;
4885;SDS011;2457;51.788;6.136;2023-10-09T13:00:38;10.90;;;4.90;;
4885;SDS011;2457;51.788;6.136;2023-10-09T13:03:12;8.67;;;4.20;;
4885;SDS011;2457;51.788;6.136;2023-10-09T13:05:50;11.33;;;4.80;;
4885;SDS011;2457;51.788;6.136;2023-10-09T13:08:21;10.83;;;5.20;;
4885;SDS011;2457;51.788;6.136;2023-10-09T13:10:50;12.80;;;5.30;;
4885;SDS011;2457;51.788;6.136;2023-10-09T13:13:22;14.33;;;6.33;;
4885;SDS011;2457;51.788;6.136;2023-10-09T13:15:49;11.83;;;4.70;;
4885;SDS011;2457;51.788;6.136;2023-10-09T13:18:17;9.63;;;4.80;;
4885;SDS011;2457;51.788;6.136;2023-10-09T13:20:44;12.77;;;5.13;;
4885;SDS011;2457;51.788;6.136;2023-10-09T13:23:12;11.90;;;5.77;;
4885;SDS011;2457;51.788;6.136;2023-10-09T13:25:40;10.97;;;4.83;;
4885;SDS011;2457;51.788;6.136;2023-10-09T13:28:08;14.10;;;5.17;;
4885;SDS011;2457;51.788;6.136;2023-10-09T13:30:37;10.53;;;5.70;;
4885;SDS011;2457;51.788;6.136;2023-10-09T13:33:05;12.17;;;5.37;;
4885;SDS011;2457;51.788;6.136;2023-10-09T13:35:32;13.33;;;5.03;;
4885;SDS011;2457;51.788;6.136;2023-10-09T13:38:01;13.67;;;5.00;;
4885;SDS011;2457;51.788;6.136;2023-10-09T13:40:30;15.57;;;5.13;;
4885;SDS011;2457;51.788;6.136;2023-10-09T13:42:57;14.83;;;5.20;;
4885;SDS011;2457;51.788;6.136;2023-10-09T13:45:27;12.30;;;4.20;;
4885;SDS011;2457;51.788;6.136;2023-10-09T13:47:55;10.73;;;4.10;;
4885;SDS011;2457;51.788;6.136;2023-10-09T13:50:23;9.73;;;3.97;;
4885;SDS011;2457;51.788;6.136;2023-10-09T13:52:53;13.87;;;5.10;;
4885;SDS011;2457;51.788;6.136;2023-10-09T13:55:21;7.57;;;3.23;;
4885;SDS011;2457;51.788;6.136;2023-10-09T13:57:50;11.60;;;4.40;;
4885;SDS011;2457;51.788;6.136;2023-10-09T14:00:17;9.43;;;3.70;;
4885;SDS011;2457;51.788;6.136;2023-10-09T14:02:46;15.53;;;3.87;;
4885;SDS011;2457;51.788;6.136;2023-10-09T14:05:17;9.97;;;3.53;;
4885;SDS011;2457;51.788;6.136;2023-10-09T14:07:46;13.90;;;5.00;;
4885;SDS011;2457;51.788;6.136;2023-10-09T14:10:14;13.13;;;3.93;;
4885;SDS011;2457;51.788;6.136;2023-10-09T14:12:44;13.03;;;5.10;;
4885;SDS011;2457;51.788;6.136;2023-10-09T14:15:13;15.33;;;4.20;;
4885;SDS011;2457;51.788;6.136;2023-10-09T14:17:42;11.53;;;3.10;;
4885;SDS011;2457;51.788;6.136;2023-10-09T14:20:10;9.83;;;4.00;;
4885;SDS011;2457;51.788;6.136;2023-10-09T14:22:55;15.03;;;3.83;;
4885;SDS011;2457;51.788;6.136;2023-10-09T14:25:22;12.70;;;4.40;;
4885;SDS011;2457;51.788;6.136;2023-10-09T14:27:55;8.70;;;3.50;;
4885;SDS011;2457;51.788;6.136;2023-10-09T14:30:24;9.80;;;4.30;;
4885;SDS011;2457;51.788;6.136;2023-10-09T14:32:58;10.63;;;4.40;;
4885;SDS011;2457;51.788;6.136;2023-10-09T14:35:27;11.47;;;3.47;;
4885;SDS011;2457;51.788;6.136;2023-10-09T14:37:56;8.20;;;3.17;;
4885;SDS011;2457;51.788;6.136;2023-10-09T14:40:24;21.43;;;5.27;;
4885;SDS011;2457;51.788;6.136;2023-10-09T14:42:58;9.20;;;3.50;;
4885;SDS011;2457;51.788;6.136;2023-10-09T14:45:25;11.10;;;3.30;;
4885;SDS011;2457;51.788;6.136;2023-10-09T14:47:53;8.90;;;3.57;;
4885;SDS011;2457;51.788;6.136;2023-10-09T14:50:21;13.00;;;3.60;;
4885;SDS011;2457;51.788;6.136;2023-10-09T14:52:51;11.27;;;3.27;;
4885;SDS011;2457;51.788;6.136;2023-10-09T14:55:18;9.27;;;3.50;;
4885;SDS011;2457;51.788;6.136;2023-10-09T14:57:48;12.53;;;5.40;;
4885;SDS011;2457;51.788;6.136;2023-10-09T15:00:16;10.83;;;3.40;;
4885;SDS011;2457;51.788;6.136;2023-10-09T15:02:45;11.80;;;3.40;;
4885;SDS011;2457;51.788;6.136;2023-10-09T15:05:12;13.80;;;3.30;;
4885;SDS011;2457;51.788;6.136;2023-10-09T15:07:40;13.63;;;3.17;;
4885;SDS011;2457;51.788;6.136;2023-10-09T15:10:08;7.67;;;3.07;;
4885;SDS011;2457;51.788;6.136;2023-10-09T15:12:36;9.20;;;3.40;;
4885;SDS011;2457;51.788;6.136;2023-10-09T15:15:08;9.20;;;3.87;;
4885;SDS011;2457;51.788;6.136;2023-10-09T15:17:40;14.27;;;4.20;;
4885;SDS011;2457;51.788;6.136;2023-10-09T15:20:12;11.47;;;3.40;;
4885;SDS011;2457;51.788;6.136;2023-10-09T15:22:40;12.03;;;3.53;;
4885;SDS011;2457;51.788;6.136;2023-10-09T15:25:08;10.00;;;4.40;;
4885;SDS011;2457;51.788;6.136;2023-10-09T15:27:36;11.07;;;4.73;;
4885;SDS011;2457;51.788;6.136;2023-10-09T15:30:07;8.57;;;3.23;;
4885;SDS011;2457;51.788;6.136;2023-10-09T15:32:35;11.07;;;3.60;;
4885;SDS011;2457;51.788;6.136;2023-10-09T15:35:02;11.43;;;3.20;;
4885;SDS011;2457;51.788;6.136;2023-10-09T15:37:31;12.87;;;4.07;;
4885;SDS011;2457;51.788;6.136;2023-10-09T15:39:59;7.67;;;2.87;;
4885;SDS011;2457;51.788;6.136;2023-10-09T15:42:28;8.17;;;3.40;;
4885;SDS011;2457;51.788;6.136;2023-10-09T15:44:55;8.83;;;3.50;;
4885;SDS011;2457;51.788;6.136;2023-10-09T15:47:27;9.10;;;3.40;;
4885;SDS011;2457;51.788;6.136;2023-10-09T15:49:51;14.17;;;4.07;;
4885;SDS011;2457;51.788;6.136;2023-10-09T15:52:18;10.70;;;3.70;;